Time;durP1;ratioP1;P1;durP2;ratioP2;P2;SDS_P1;SDS_P2;PMS_P1;PMS_P2;Temp;Humidity;BMP_temperature;BMP_pressure;BME280_temperature;BME280_humidity;BME280_pressure;Samples;Min_cycle;Max_cycle;Signal;HPM_P1;HPM_P2
2022/08/06 00:01:07;;;;;;;21.90;11.18;;;;;;;-148.14;100.00;65945.72;5052997;28;20132;-83
2022/08/06 00:03:34;;;;;;;20.63;9.57;;;;;;;-148.14;100.00;65945.72;5030371;28;20045;-84
2022/08/06 00:05:59;;;;;;;15.40;9.80;;;;;;;-148.14;100.00;65945.72;5054313;28;20394;-83
2022/08/06 00:08:25;;;;;;;20.20;10.82;;;;;;;-148.14;100.00;65945.72;5036084;28;20048;-83
2022/08/06 00:10:50;;;;;;;17.23;9.10;;;;;;;-148.14;100.00;65945.72;5023679;28;20033;-84
2022/08/06 00:13:18;;;;;;;23.48;11.23;;;;;;;-148.14;100.00;65945.72;5035976;28;20067;-83
2022/08/06 00:15:44;;;;;;;23.42;11.35;;;;;;;-148.14;100.00;65945.72;5011483;28;20403;-83
2022/08/06 00:18:09;;;;;;;17.15;10.95;;;;;;;-148.14;100.00;65945.72;5035962;28;20024;-84
2022/08/06 00:20:35;;;;;;;28.95;12.15;;;;;;;-148.14;100.00;65945.72;5026608;28;20470;-84
2022/08/06 00:23:00;;;;;;;19.67;11.93;;;;;;;-148.14;100.00;65945.72;5018797;28;20041;-85
2022/08/06 00:25:27;;;;;;;22.70;11.52;;;;;;;-148.14;100.00;65945.72;5054514;28;20387;-84
2022/08/06 00:27:52;;;;;;;18.60;11.98;;;;;;;-148.14;100.00;65945.72;5031993;28;20437;-83
2022/08/06 00:30:19;;;;;;;20.35;12.45;;;;;;;-148.14;100.00;65945.72;5014224;28;20128;-84
2022/08/06 00:32:45;;;;;;;23.20;12.27;;;;;;;-148.14;100.00;65945.72;5022325;28;20052;-84
2022/08/06 00:35:10;;;;;;;20.60;12.02;;;;;;;-148.14;100.00;65945.72;5031713;28;20033;-84
2022/08/06 00:37:36;;;;;;;23.77;14.10;;;;;;;-148.14;100.00;65945.72;5032016;28;20044;-85
2022/08/06 00:40:01;;;;;;;21.77;13.13;;;;;;;-148.14;100.00;65945.72;5025372;28;20071;-84
2022/08/06 00:42:27;;;;;;;24.15;13.55;;;;;;;-148.14;100.00;65945.72;5019475;28;20039;-84
2022/08/06 00:44:54;;;;;;;20.55;12.07;;;;;;;-148.14;100.00;65945.72;5015426;28;20029;-85
2022/08/06 00:47:19;;;;;;;24.75;13.35;;;;;;;-148.14;100.00;65945.72;5053720;28;20035;-83
2022/08/06 00:49:45;;;;;;;26.05;13.57;;;;;;;-148.14;100.00;65945.72;5043833;28;20112;-84
2022/08/06 00:52:10;;;;;;;27.60;13.00;;;;;;;-148.14;100.00;65945.72;5051276;28;20032;-83
2022/08/06 00:54:36;;;;;;;25.00;13.45;;;;;;;-148.14;100.00;65945.72;5024189;28;20111;-84
2022/08/06 00:57:04;;;;;;;21.58;12.80;;;;;;;-148.14;100.00;65945.72;5011839;28;20029;-82
2022/08/06 00:59:30;;;;;;;24.08;13.23;;;;;;;-148.14;100.00;65945.72;5031275;28;20075;-84
2022/08/06 01:01:56;;;;;;;19.63;12.40;;;;;;;-148.14;100.00;65945.72;5053105;28;20471;-83
2022/08/06 01:04:21;;;;;;;25.38;13.00;;;;;;;-148.14;100.00;65945.72;5053400;28;20127;-84
2022/08/06 01:06:48;;;;;;;22.38;11.80;;;;;;;-148.14;100.00;65945.72;5011453;28;20037;-84
2022/08/06 01:09:14;;;;;;;23.58;12.02;;;;;;;-148.14;100.00;65945.72;5005818;28;20128;-82
2022/08/06 01:11:40;;;;;;;19.60;11.30;;;;;;;-148.14;100.00;65945.72;5051497;28;20115;-83
2022/08/06 01:14:07;;;;;;;21.50;12.18;;;;;;;-148.14;100.00;65945.72;5011585;28;20033;-84
2022/08/06 01:16:46;;;;;;;20.25;10.57;;;;;;;-148.14;100.00;65945.72;5050545;28;20044;-84
2022/08/06 01:19:24;;;;;;;22.63;9.93;;;;;;;-148.14;100.00;65945.72;5026246;28;20460;-83
2022/08/06 01:22:21;;;;;;;27.33;10.38;;;;;;;-148.14;100.00;65945.72;5034793;28;20033;-84
2022/08/06 01:24:58;;;;;;;26.23;10.25;;;;;;;-148.14;100.00;65945.72;5051160;28;20475;-84
2022/08/06 01:27:33;;;;;;;19.48;9.93;;;;;;;-148.14;100.00;65945.72;5012386;28;20029;-83
2022/08/06 01:30:07;;;;;;;19.67;9.35;;;;;;;-148.14;100.00;65945.72;5051554;28;20056;-84
2022/08/06 01:32:38;;;;;;;25.50;8.75;;;;;;;-148.14;100.00;65945.72;5034663;28;20040;-83
2022/08/06 01:35:29;;;;;;;20.30;9.43;;;;;;;-148.14;100.00;65945.72;5031260;28;20049;-84
2022/08/06 01:38:01;;;;;;;14.63;8.73;;;;;;;-148.14;100.00;65945.72;5013204;28;20028;-83
2022/08/06 01:40:31;;;;;;;17.38;8.95;;;;;;;-148.14;100.00;65945.72;5016841;28;20033;-84
2022/08/06 01:42:58;;;;;;;18.00;8.98;;;;;;;-148.14;100.00;65945.72;5023383;28;20387;-85
2022/08/06 01:45:29;;;;;;;16.45;9.65;;;;;;;-148.14;100.00;65945.72;5033909;28;20033;-84
2022/08/06 01:48:00;;;;;;;19.00;9.82;;;;;;;-148.14;100.00;65945.72;5027850;28;20087;-82
2022/08/06 01:50:30;;;;;;;17.85;9.05;;;;;;;-148.14;100.00;65945.72;5024302;28;20087;-82
2022/08/06 01:53:01;;;;;;;19.10;8.88;;;;;;;-148.14;100.00;65945.72;5051001;28;20039;-84
2022/08/06 01:55:31;;;;;;;18.15;8.63;;;;;;;-148.14;100.00;65945.72;5033550;28;20029;-83
2022/08/06 01:58:02;;;;;;;17.30;7.80;;;;;;;-148.14;100.00;65945.72;5031823;28;20036;-84
2022/08/06 02:00:28;;;;;;;23.70;9.02;;;;;;;-148.14;100.00;65945.72;5033694;28;20450;-83
2022/08/06 02:02:58;;;;;;;17.20;7.70;;;;;;;-148.14;100.00;65945.72;5008772;28;20037;-85
2022/08/06 02:05:25;;;;;;;14.10;7.68;;;;;;;-148.14;100.00;65945.72;5031732;28;20545;-84
2022/08/06 02:07:52;;;;;;;19.40;7.65;;;;;;;-148.14;100.00;65945.72;5051244;28;20039;-84
2022/08/06 02:10:22;;;;;;;18.13;8.10;;;;;;;-148.14;100.00;65945.72;5051389;28;20024;-83
2022/08/06 02:12:49;;;;;;;15.18;7.93;;;;;;;-148.14;100.00;65945.72;5030209;28;20025;-85
2022/08/06 02:15:26;;;;;;;20.27;8.00;;;;;;;-148.14;100.00;65945.72;5022226;28;20049;-84
2022/08/06 02:17:56;;;;;;;17.77;7.65;;;;;;;-148.14;100.00;65945.72;5033524;28;20434;-82
2022/08/06 02:20:49;;;;;;;18.58;7.00;;;;;;;-148.14;100.00;65945.72;5051198;28;20036;-84
2022/08/06 02:23:18;;;;;;;10.60;5.30;;;;;;;-148.14;100.00;65945.72;5022153;28;20049;-85
2022/08/06 02:25:47;;;;;;;14.10;7.93;;;;;;;-148.14;100.00;65945.72;5049606;28;20418;-85
2022/08/06 02:28:15;;;;;;;13.85;7.28;;;;;;;-148.14;100.00;65945.72;5033417;28;20368;-84
2022/08/06 02:30:44;;;;;;;12.98;6.60;;;;;;;-148.14;100.00;65945.72;5045800;28;20087;-84
2022/08/06 02:33:10;;;;;;;17.23;7.25;;;;;;;-148.14;100.00;65945.72;5050899;28;20028;-83
2022/08/06 02:35:43;;;;;;;19.17;7.18;;;;;;;-148.14;100.00;65945.72;5023905;28;20545;-85
2022/08/06 02:38:17;;;;;;;14.88;7.15;;;;;;;-148.14;100.00;65945.72;5026692;28;20048;-84
2022/08/06 02:40:49;;;;;;;17.30;6.95;;;;;;;-148.14;100.00;65945.72;5023381;28;20029;-84
2022/08/06 02:43:27;;;;;;;18.90;7.13;;;;;;;-148.14;100.00;65945.72;5050662;28;20071;-85
2022/08/06 02:46:02;;;;;;;16.83;6.70;;;;;;;-148.14;100.00;65945.72;5026962;28;20037;-84
2022/08/06 02:48:33;;;;;;;14.85;6.63;;;;;;;-148.14;100.00;65945.72;5016058;28;20467;-83
2022/08/06 02:51:11;;;;;;;12.93;6.53;;;;;;;-148.14;100.00;65945.72;5007984;28;20029;-83
2022/08/06 02:53:50;;;;;;;18.05;6.55;;;;;;;-148.14;100.00;65945.72;5012143;28;20090;-83
2022/08/06 02:56:16;;;;;;;14.15;6.45;;;;;;;-148.14;100.00;65945.72;5024090;28;20471;-83
2022/08/06 02:58:45;;;;;;;13.95;6.35;;;;;;;-148.14;100.00;65945.72;5026370;28;20028;-84
2022/08/06 03:01:27;;;;;;;13.85;6.53;;;;;;;-148.14;100.00;65945.72;5023128;28;20117;-83
2022/08/06 03:03:57;;;;;;;17.90;6.97;;;;;;;-148.14;100.00;65945.72;5032641;28;20048;-84
2022/08/06 03:06:25;;;;;;;11.32;6.63;;;;;;;-148.14;100.00;65945.72;5019874;28;20033;-84
2022/08/06 03:08:56;;;;;;;18.08;6.90;;;;;;;-148.14;100.00;65945.72;5052589;28;20104;-82
2022/08/06 03:11:23;;;;;;;16.95;7.30;;;;;;;-148.14;100.00;65945.72;5019550;28;20082;-85
2022/08/06 03:13:50;;;;;;;21.38;7.70;;;;;;;-148.14;100.00;65945.72;5027787;28;20029;-84
2022/08/06 03:16:17;;;;;;;14.38;7.13;;;;;;;-148.14;100.00;65945.72;5019714;28;20037;-83
2022/08/06 03:18:45;;;;;;;16.95;7.35;;;;;;;-148.14;100.00;65945.72;5029334;28;20032;-83
2022/08/06 03:21:13;;;;;;;14.65;6.95;;;;;;;-148.14;100.00;65945.72;5036103;28;20036;-83
2022/08/06 03:23:41;;;;;;;21.80;6.85;;;;;;;-148.14;100.00;65945.72;5009879;28;20131;-84
2022/08/06 03:26:08;;;;;;;11.68;6.47;;;;;;;-148.14;100.00;65945.72;5019414;28;20033;-84
2022/08/06 03:28:35;;;;;;;17.73;7.38;;;;;;;-148.14;100.00;65945.72;5053542;28;20040;-83
2022/08/06 03:31:03;;;;;;;14.65;6.70;;;;;;;-148.14;100.00;65945.72;5036061;28;20025;-84
2022/08/06 03:33:29;;;;;;;11.43;6.20;;;;;;;-148.14;100.00;65945.72;5053627;28;20536;-83
2022/08/06 03:35:57;;;;;;;9.52;5.93;;;;;;;-148.14;100.00;65945.72;5028431;28;20121;-83
2022/08/06 03:38:25;;;;;;;9.50;5.88;;;;;;;-148.14;100.00;65945.72;5034922;28;20040;-84
2022/08/06 03:40:54;;;;;;;13.07;6.63;;;;;;;-148.14;100.00;65945.72;5026449;28;20040;-84
2022/08/06 03:43:19;;;;;;;14.57;5.97;;;;;;;-148.14;100.00;65945.72;5035830;28;20079;-84
2022/08/06 03:45:52;;;;;;;13.85;5.90;;;;;;;-148.14;100.00;65945.72;5025774;28;20033;-84
2022/08/06 03:48:27;;;;;;;11.03;5.43;;;;;;;-148.14;100.00;65945.72;5045181;28;20075;-84
2022/08/06 03:50:53;;;;;;;20.58;5.90;;;;;;;-148.14;100.00;65945.72;5053318;28;20293;-84
2022/08/06 03:53:23;;;;;;;15.70;5.25;;;;;;;-148.14;100.00;65945.72;5052877;28;20063;-83
2022/08/06 03:55:52;;;;;;;14.57;6.60;;;;;;;-148.14;100.00;65945.72;5018222;28;20056;-83
2022/08/06 03:58:20;;;;;;;15.05;5.60;;;;;;;-148.14;100.00;65945.72;5015577;28;20037;-85
2022/08/06 04:00:58;;;;;;;16.55;6.47;;;;;;;-148.14;100.00;65945.72;5053465;28;20123;-84
2022/08/06 04:03:25;;;;;;;22.00;5.78;;;;;;;-148.14;100.00;65945.72;5034360;28;20037;-84
2022/08/06 04:05:53;;;;;;;10.70;5.82;;;;;;;-148.14;100.00;65945.72;5018772;28;20028;-84
2022/08/06 04:08:19;;;;;;;14.73;5.35;;;;;;;-148.14;100.00;65945.72;5052294;28;20053;-83
2022/08/06 04:10:48;;;;;;;10.32;5.22;;;;;;;-148.14;100.00;65945.72;5035162;28;20029;-84
2022/08/06 04:13:16;;;;;;;14.50;5.75;;;;;;;-148.14;100.00;65945.72;5035306;28;20112;-85
2022/08/06 04:15:42;;;;;;;15.93;6.70;;;;;;;-148.14;100.00;65945.72;5012154;28;20529;-83
2022/08/06 04:18:17;;;;;;;11.73;5.82;;;;;;;-148.14;100.00;65945.72;5027969;28;20060;-83
2022/08/06 04:20:46;;;;;;;13.77;5.72;;;;;;;-148.14;100.00;65945.72;5004098;28;20499;-83
2022/08/06 04:23:13;;;;;;;12.70;5.82;;;;;;;-148.14;100.00;65945.72;5029424;28;20021;-84
2022/08/06 04:25:49;;;;;;;10.48;6.00;;;;;;;-148.14;100.00;65945.72;5034548;28;20055;-84
2022/08/06 04:28:17;;;;;;;11.35;5.43;;;;;;;-148.14;100.00;65945.72;5023645;28;20040;-83
2022/08/06 04:30:44;;;;;;;7.95;5.07;;;;;;;-148.14;100.00;65945.72;5034705;28;20039;-83
2022/08/06 04:33:13;;;;;;;9.68;5.60;;;;;;;-148.14;100.00;65945.72;5021127;28;20590;-85
2022/08/06 04:35:40;;;;;;;12.98;6.30;;;;;;;-148.14;100.00;65945.72;5033869;28;20090;-84
2022/08/06 04:38:07;;;;;;;15.15;6.15;;;;;;;-148.14;100.00;65945.72;5042478;28;20479;-84
2022/08/06 04:40:33;;;;;;;12.90;5.90;;;;;;;-148.14;100.00;65945.72;5023566;28;20041;-84
2022/08/06 04:42:59;;;;;;;14.18;6.80;;;;;;;-148.14;100.00;65945.72;5034303;28;20036;-84
2022/08/06 04:45:27;;;;;;;13.65;6.20;;;;;;;-148.14;100.00;65945.72;5052534;28;20025;-84
2022/08/06 04:47:54;;;;;;;13.15;5.63;;;;;;;-148.14;100.00;65945.72;5018018;28;20479;-84
2022/08/06 04:50:19;;;;;;;11.55;5.68;;;;;;;-148.14;100.00;65945.72;5049405;28;20033;-83
2022/08/06 04:52:45;;;;;;;12.30;6.65;;;;;;;-148.14;100.00;65945.72;5034191;28;20035;-84
2022/08/06 04:55:11;;;;;;;17.73;6.65;;;;;;;-148.14;100.00;65945.72;5025216;28;20037;-84
2022/08/06 04:57:36;;;;;;;14.68;6.38;;;;;;;-148.14;100.00;65945.72;5048163;28;20377;-84
2022/08/06 05:00:03;;;;;;;12.05;6.22;;;;;;;-148.14;100.00;65945.72;5034334;28;20077;-83
2022/08/06 05:02:29;;;;;;;10.35;6.07;;;;;;;-148.14;100.00;65945.72;5051862;28;20029;-84
2022/08/06 05:04:57;;;;;;;15.75;6.72;;;;;;;-148.14;100.00;65945.72;5043183;28;20045;-85
2022/08/06 05:07:31;;;;;;;13.35;5.80;;;;;;;-148.14;100.00;65945.72;5018614;28;20076;-83
2022/08/06 05:09:58;;;;;;;11.93;6.30;;;;;;;-148.14;100.00;65945.72;5034490;28;20032;-85
2022/08/06 05:12:23;;;;;;;11.48;6.43;;;;;;;-148.14;100.00;65945.72;5051989;28;20029;-84
2022/08/06 05:14:53;;;;;;;16.30;6.57;;;;;;;-148.14;100.00;65945.72;5017917;28;20082;-84
2022/08/06 05:17:24;;;;;;;11.80;6.60;;;;;;;-148.14;100.00;65945.72;5050767;28;20032;-84
2022/08/06 05:20:00;;;;;;;17.65;7.00;;;;;;;-148.14;100.00;65945.72;5019485;28;20033;-84
2022/08/06 05:22:27;;;;;;;12.27;6.57;;;;;;;-148.14;100.00;65945.72;5023952;28;20486;-84
2022/08/06 05:24:53;;;;;;;14.07;6.70;;;;;;;-148.14;100.00;65945.72;5017170;28;20352;-84
2022/08/06 05:27:18;;;;;;;13.45;6.03;;;;;;;-148.14;100.00;65945.72;5033727;28;20112;-84
2022/08/06 05:29:44;;;;;;;15.82;6.25;;;;;;;-148.14;100.00;65945.72;5028394;28;20033;-84
2022/08/06 05:32:10;;;;;;;14.55;6.03;;;;;;;-148.14;100.00;65945.72;5026729;28;20059;-85
2022/08/06 05:34:35;;;;;;;18.17;6.40;;;;;;;-148.14;100.00;65945.72;5050453;28;20029;-84
2022/08/06 05:37:02;;;;;;;10.20;6.10;;;;;;;-148.14;100.00;65945.72;5041524;28;20061;-84
2022/08/06 05:39:28;;;;;;;13.20;5.75;;;;;;;-148.14;100.00;65945.72;5012048;28;20513;-84
2022/08/06 05:41:53;;;;;;;10.32;5.75;;;;;;;-148.14;100.00;65945.72;5044542;28;20028;-84
2022/08/06 05:44:19;;;;;;;21.05;5.95;;;;;;;-148.14;100.00;65945.72;5054618;28;20033;-83
2022/08/06 05:46:54;;;;;;;13.13;5.78;;;;;;;-148.14;100.00;65945.72;5060015;28;20025;-84
2022/08/06 05:49:28;;;;;;;16.05;6.15;;;;;;;-148.14;100.00;65945.72;5037179;28;20036;-84
2022/08/06 05:52:07;;;;;;;;;;;;;;;-148.14;100.00;65945.72;5025546;28;20501;-84
2022/08/06 05:54:46;;;;;;;9.73;5.80;;;;;;;-148.14;100.00;65945.72;5025026;28;20244;-84
2022/08/06 05:57:19;;;;;;;15.55;6.38;;;;;;;-148.14;100.00;65945.72;5033792;28;20043;-84
2022/08/06 05:59:58;;;;;;;16.70;6.03;;;;;;;-148.14;100.00;65945.72;5051562;28;20029;-84
2022/08/06 06:02:26;;;;;;;11.48;5.78;;;;;;;-148.14;100.00;65945.72;5049689;28;20063;-83
2022/08/06 06:04:53;;;;;;;11.93;4.97;;;;;;;-148.14;100.00;65945.72;5008463;28;20380;-84
2022/08/06 06:07:19;;;;;;;11.43;5.18;;;;;;;-148.14;100.00;65945.72;5027697;28;20033;-84
2022/08/06 06:09:45;;;;;;;9.88;5.43;;;;;;;-148.14;100.00;65945.72;5026192;28;20033;-84
2022/08/06 06:12:12;;;;;;;10.60;5.28;;;;;;;-148.14;100.00;65945.72;5026601;28;20035;-84
2022/08/06 06:14:40;;;;;;;15.18;5.43;;;;;;;-148.14;100.00;65945.72;5016509;28;20029;-83
2022/08/06 06:17:24;;;;;;;11.25;4.68;;;;;;;-148.14;100.00;65945.72;5016507;28;20021;-83
2022/08/06 06:20:05;;;;;;;15.68;5.03;;;;;;;-148.14;100.00;65945.72;5032599;28;20039;-83
2022/08/06 06:22:39;;;;;;;11.85;5.03;;;;;;;-148.14;100.00;65945.72;5016652;28;20422;-84
2022/08/06 06:25:14;;;;;;;10.90;4.47;;;;;;;-148.14;100.00;65945.72;5006171;28;20538;-85
2022/08/06 06:28:04;;;;;;;11.23;5.07;;;;;;;-148.14;100.00;65945.72;5015520;28;20043;-84
2022/08/06 06:30:36;;;;;;;10.27;5.40;;;;;;;-148.14;100.00;65945.72;5047968;28;20379;-84
2022/08/06 06:33:13;;;;;;;13.70;5.78;;;;;;;-148.14;100.00;65945.72;5019249;28;20171;-85
2022/08/06 06:35:53;;;;;;;7.85;4.38;;;;;;;-148.14;100.00;65945.72;5027107;28;20036;-84
2022/08/06 06:39:03;;;;;;;10.95;4.50;;;;;;;-148.14;100.00;65945.72;5020825;28;20490;-84
2022/08/06 06:41:43;;;;;;;13.15;4.95;;;;;;;-148.14;100.00;65945.72;5050724;28;20452;-84
2022/08/06 06:44:24;;;;;;;5.15;4.25;;;;;;;-148.14;100.00;65945.72;5058186;28;20021;-85
2022/08/06 06:47:04;;;;;;;10.50;4.25;;;;;;;-148.14;100.00;65945.72;5054089;28;20029;-85
2022/08/06 06:49:39;;;;;;;8.98;4.18;;;;;;;-148.14;100.00;65945.72;5030024;28;20037;-84
2022/08/06 06:52:34;;;;;;;8.40;4.32;;;;;;;-148.14;100.00;65945.72;5027208;28;20056;-84
2022/08/06 06:55:17;;;;;;;7.07;3.63;;;;;;;-148.14;100.00;65945.72;5052078;28;20124;-84
2022/08/06 06:57:47;;;;;;;14.18;4.18;;;;;;;-148.14;100.00;65945.72;5054458;28;20063;-84
2022/08/06 07:00:14;;;;;;;14.02;4.50;;;;;;;-148.14;100.00;65945.72;5035786;28;20029;-85
2022/08/06 07:02:41;;;;;;;14.77;5.63;;;;;;;-148.14;100.00;65945.72;5019298;28;20095;-84
2022/08/06 07:05:09;;;;;;;7.63;4.45;;;;;;;-148.14;100.00;65945.72;5035895;28;20140;-84
2022/08/06 07:07:38;;;;;;;8.93;4.47;;;;;;;-148.14;100.00;65945.72;5011514;28;20045;-84
2022/08/06 07:10:07;;;;;;;8.02;4.28;;;;;;;-148.14;100.00;65945.72;5026277;28;20450;-84
2022/08/06 07:12:34;;;;;;;8.32;4.32;;;;;;;-148.14;100.00;65945.72;5035935;28;20152;-84
2022/08/06 07:15:06;;;;;;;12.75;4.43;;;;;;;-148.14;100.00;65945.72;5019159;28;20044;-85
2022/08/06 07:17:35;;;;;;;9.23;4.60;;;;;;;-148.14;100.00;65945.72;5036088;28;20427;-85
2022/08/06 07:20:07;;;;;;;10.88;4.65;;;;;;;-148.14;100.00;65945.72;5053813;28;20109;-83
2022/08/06 07:22:35;;;;;;;11.25;4.47;;;;;;;-148.14;100.00;65945.72;5035843;28;20064;-83
2022/08/06 07:25:04;;;;;;;9.95;4.30;;;;;;;-148.14;100.00;65945.72;5015501;28;20049;-84
2022/08/06 07:27:39;;;;;;;10.60;4.70;;;;;;;-148.14;100.00;65945.72;5051645;28;20036;-84
2022/08/06 07:30:06;;;;;;;10.93;4.57;;;;;;;-148.14;100.00;65945.72;5019319;28;20104;-83
2022/08/06 07:32:34;;;;;;;14.85;6.43;;;;;;;-148.14;100.00;65945.72;5035608;28;20039;-84
2022/08/06 07:35:05;;;;;;;10.32;4.97;;;;;;;-148.14;100.00;65945.72;5035433;28;20083;-84
2022/08/06 07:37:32;;;;;;;8.35;4.40;;;;;;;-148.14;100.00;65945.72;5052544;28;20708;-83
2022/08/06 07:40:00;;;;;;;8.85;4.95;;;;;;;-148.14;100.00;65945.72;5053184;28;20095;-84
2022/08/06 07:42:28;;;;;;;8.73;4.80;;;;;;;-148.14;100.00;65945.72;5035101;28;20059;-84
2022/08/06 07:45:02;;;;;;;10.45;4.72;;;;;;;-148.14;100.00;65945.72;5051608;28;20027;-84
2022/08/06 07:47:34;;;;;;;8.77;4.65;;;;;;;-148.14;100.00;65945.72;5052578;28;20033;-84
2022/08/06 07:49:59;;;;;;;7.35;4.38;;;;;;;-148.14;100.00;65945.72;5051636;28;20464;-84
2022/08/06 07:52:25;;;;;;;11.80;6.00;;;;;;;-148.14;100.00;65945.72;5034564;28;20092;-84
2022/08/06 07:54:53;;;;;;;9.82;5.32;;;;;;;-148.14;100.00;65945.72;5028315;28;20037;-84
2022/08/06 07:57:20;;;;;;;14.85;5.65;;;;;;;-148.14;100.00;65945.72;5009801;28;20037;-84
2022/08/06 07:59:47;;;;;;;11.13;5.00;;;;;;;-148.14;100.00;65945.72;5018583;28;20386;-84
2022/08/06 08:02:13;;;;;;;10.48;5.57;;;;;;;-148.14;100.00;65945.72;5035402;28;20025;-84
2022/08/06 08:07:25;;;;;;;10.52;5.53;;;;;;;-148.14;100.00;65945.72;5026038;28;20395;-84
2022/08/06 08:09:52;;;;;;;11.15;5.45;;;;;;;-148.14;100.00;65945.72;5018941;28;20479;-85
2022/08/06 08:12:19;;;;;;;7.10;4.82;;;;;;;-148.14;100.00;65945.72;5044607;28;20154;-84
2022/08/06 08:14:46;;;;;;;12.05;5.80;;;;;;;-148.14;100.00;65945.72;5050938;28;20061;-84
2022/08/06 08:17:12;;;;;;;10.50;5.82;;;;;;;-148.14;100.00;65945.72;5034732;28;20039;-85
2022/08/06 08:19:38;;;;;;;11.50;5.90;;;;;;;-148.14;100.00;65945.72;5052623;28;20033;-85
2022/08/06 08:22:16;;;;;;;8.57;6.18;;;;;;;-148.14;100.00;65945.72;5029458;28;20047;-84
2022/08/06 08:24:44;;;;;;;9.80;5.70;;;;;;;-148.14;100.00;65945.72;5029537;28;20051;-85
2022/08/06 08:27:11;;;;;;;10.30;5.70;;;;;;;-148.14;100.00;65945.72;5050219;28;20036;-85
2022/08/06 08:30:01;;;;;;;10.25;5.35;;;;;;;-148.14;100.00;65945.72;5030790;28;20093;-86
2022/08/06 08:32:26;;;;;;;10.45;5.13;;;;;;;-148.14;100.00;65945.72;5033047;28;20044;-84
2022/08/06 08:34:52;;;;;;;12.80;6.03;;;;;;;-148.14;100.00;65945.72;5030477;28;20036;-85
2022/08/06 08:37:21;;;;;;;9.93;6.30;;;;;;;-148.14;100.00;65945.72;5048219;28;20466;-84
2022/08/06 08:39:47;;;;;;;12.93;6.40;;;;;;;-148.14;100.00;65945.72;5052800;28;20031;-84
2022/08/06 08:42:17;;;;;;;9.32;6.07;;;;;;;-148.14;100.00;65945.72;5037314;28;20029;-84
2022/08/06 08:44:44;;;;;;;9.57;6.90;;;;;;;-148.14;100.00;65945.72;5051966;28;20048;-84
2022/08/06 08:47:13;;;;;;;9.02;6.20;;;;;;;-148.14;100.00;65945.72;5024485;28;20116;-84
2022/08/06 08:49:54;;;;;;;8.95;6.30;;;;;;;-148.14;100.00;65945.72;5012168;28;20115;-84
2022/08/06 08:52:33;;;;;;;10.10;6.53;;;;;;;-148.14;100.00;65945.72;5010047;28;20044;-83
2022/08/06 08:55:03;;;;;;;11.40;6.70;;;;;;;-148.14;100.00;65945.72;5017205;28;20110;-84
2022/08/06 08:57:30;;;;;;;10.15;6.57;;;;;;;-148.14;100.00;65945.72;5035742;28;20033;-84
2022/08/06 08:59:56;;;;;;;12.68;5.93;;;;;;;-148.14;100.00;65945.72;5051519;28;20025;-84
2022/08/06 09:02:24;;;;;;;8.27;5.45;;;;;;;-148.14;100.00;65945.72;5022566;28;20479;-84
2022/08/06 09:04:50;;;;;;;8.82;5.93;;;;;;;-148.14;100.00;65945.72;5008444;28;20065;-84
2022/08/06 09:07:16;;;;;;;8.00;6.10;;;;;;;-148.14;100.00;65945.72;5052434;28;20021;-84
2022/08/06 09:09:42;;;;;;;12.90;6.40;;;;;;;-148.14;100.00;65945.72;5026809;28;20387;-84
2022/08/06 09:12:08;;;;;;;7.88;5.80;;;;;;;-148.14;100.00;65945.72;5052175;28;20029;-84
2022/08/06 09:14:35;;;;;;;9.52;6.00;;;;;;;-148.14;100.00;65945.72;5017096;28;20039;-86
2022/08/06 09:17:06;;;;;;;7.65;6.10;;;;;;;-148.14;100.00;65945.72;5009326;28;21683;-84
2022/08/06 09:19:33;;;;;;;8.25;6.38;;;;;;;-148.14;100.00;65945.72;5027236;28;20025;-84
2022/08/06 09:21:59;;;;;;;10.95;6.05;;;;;;;-148.14;100.00;65945.72;5032242;28;20028;-83
2022/08/06 09:24:26;;;;;;;9.05;6.55;;;;;;;-148.14;100.00;65945.72;5029023;28;20475;-85
2022/08/06 09:27:11;;;;;;;11.70;6.47;;;;;;;-148.14;100.00;65945.72;5016616;28;20435;-84
2022/08/06 09:29:59;;;;;;;10.60;6.63;;;;;;;-148.14;100.00;65945.72;5021820;28;20066;-84
2022/08/06 09:32:41;;;;;;;7.55;6.10;;;;;;;-148.14;100.00;65945.72;5048490;28;20040;-85
2022/08/06 09:35:19;;;;;;;10.55;6.70;;;;;;;-148.14;100.00;65945.72;5034071;28;20075;-85
2022/08/06 09:37:45;;;;;;;8.82;6.00;;;;;;;-148.14;100.00;65945.72;5032129;28;20064;-84
2022/08/06 09:40:13;;;;;;;8.23;6.47;;;;;;;-148.14;100.00;65945.72;5021848;28;20075;-84
2022/08/06 09:42:48;;;;;;;7.97;6.68;;;;;;;-148.14;100.00;65945.72;5033431;28;20479;-85
2022/08/06 09:45:18;;;;;;;11.18;6.00;;;;;;;-148.14;100.00;65945.72;5042767;28;20025;-86
2022/08/06 09:47:45;;;;;;;8.70;6.28;;;;;;;-148.14;100.00;65945.72;5026796;28;20045;-84
2022/08/06 09:50:12;;;;;;;9.55;6.63;;;;;;;-148.14;100.00;65945.72;5012389;28;20083;-85
2022/08/06 09:52:37;;;;;;;7.40;6.40;;;;;;;-148.14;100.00;65945.72;5047702;28;20022;-84
2022/08/06 09:55:04;;;;;;;7.25;6.55;;;;;;;-148.14;100.00;65945.72;5032617;28;20041;-84
2022/08/06 09:57:44;;;;;;;9.23;6.43;;;;;;;-148.14;100.00;65945.72;5028451;28;20036;-85
2022/08/06 10:00:24;;;;;;;7.45;6.20;;;;;;;-148.14;100.00;65945.72;5013068;28;20491;-84
2022/08/06 10:02:55;;;;;;;12.77;6.22;;;;;;;-148.14;100.00;65945.72;5023623;28;20483;-84
2022/08/06 10:05:23;;;;;;;9.38;6.15;;;;;;;-148.14;100.00;65945.72;5050049;28;20116;-84
2022/08/06 10:08:06;;;;;;;10.68;6.25;;;;;;;-148.14;100.00;65945.72;5019094;28;20462;-84
2022/08/06 10:10:41;;;;;;;6.15;5.70;;;;;;;-148.14;100.00;65945.72;5031002;28;20431;-84
2022/08/06 10:13:26;;;;;;;7.45;6.03;;;;;;;-148.14;100.00;65945.72;5054619;28;20415;-85
2022/08/06 10:16:13;;;;;;;9.70;5.80;;;;;;;-148.14;100.00;65945.72;5026033;28;20395;-83
2022/08/06 10:18:40;;;;;;;12.35;6.28;;;;;;;-148.14;100.00;65945.72;5019537;28;20573;-84
2022/08/06 10:21:12;;;;;;;7.50;5.70;;;;;;;-148.14;100.00;65945.72;5036132;28;20037;-85
2022/08/06 10:23:40;;;;;;;6.72;5.63;;;;;;;-148.14;100.00;65945.72;5054403;28;20147;-84
2022/08/06 10:26:10;;;;;;;8.38;5.97;;;;;;;-148.14;100.00;65945.72;5034590;28;20036;-84
2022/08/06 10:28:37;;;;;;;8.95;6.75;;;;;;;-148.14;100.00;65945.72;5034334;28;20041;-84
2022/08/06 10:31:05;;;;;;;8.10;6.05;;;;;;;-148.14;100.00;65945.72;5026832;28;20510;-84
2022/08/06 10:33:52;;;;;;;10.98;6.30;;;;;;;-148.14;100.00;65945.72;5020239;28;20076;-86
2022/08/06 10:36:24;;;;;;;11.90;6.25;;;;;;;-148.14;100.00;65945.72;5054207;28;20072;-84
2022/08/06 10:38:53;;;;;;;9.98;6.07;;;;;;;-148.14;100.00;65945.72;5032203;28;20037;-84
2022/08/06 10:41:20;;;;;;;9.70;5.90;;;;;;;-148.14;100.00;65945.72;5021046;28;20352;-84
2022/08/06 10:43:46;;;;;;;9.85;6.40;;;;;;;-148.14;100.00;65945.72;5030822;28;20108;-84
2022/08/06 10:46:15;;;;;;;7.68;6.18;;;;;;;-148.14;100.00;65945.72;5034710;28;20463;-84
2022/08/06 10:48:44;;;;;;;9.98;6.38;;;;;;;-148.14;100.00;65945.72;5015877;28;20035;-85
2022/08/06 10:51:11;;;;;;;8.02;6.40;;;;;;;-148.14;100.00;65945.72;5013803;28;20398;-85
2022/08/06 10:53:45;;;;;;;7.95;6.03;;;;;;;-148.14;100.00;65945.72;5023145;28;20092;-85
2022/08/06 10:56:13;;;;;;;9.32;6.65;;;;;;;-148.14;100.00;65945.72;5027018;28;20080;-84
2022/08/06 10:58:40;;;;;;;11.43;6.47;;;;;;;-148.14;100.00;65945.72;5053789;28;20021;-85
2022/08/06 11:01:33;;;;;;;8.77;5.85;;;;;;;-148.14;100.00;65945.72;5035918;28;20044;-85
2022/08/06 11:04:10;;;;;;;9.32;6.32;;;;;;;-148.14;100.00;65945.72;5053910;28;20083;-84
2022/08/06 11:06:48;;;;;;;7.10;6.05;;;;;;;-148.14;100.00;65945.72;5023251;28;20502;-85
2022/08/06 11:09:38;;;;;;;9.98;6.93;;;;;;;-148.14;100.00;65945.72;5034053;28;20028;-84
2022/08/06 11:12:04;;;;;;;11.18;6.60;;;;;;;-148.14;100.00;65945.72;5020436;28;20124;-86
2022/08/06 11:14:30;;;;;;;10.15;6.40;;;;;;;-148.14;100.00;65945.72;5035681;28;20159;-85
2022/08/06 11:16:57;;;;;;;8.00;7.28;;;;;;;-148.14;100.00;65945.72;5029605;28;20050;-85
2022/08/06 11:19:46;;;;;;;7.57;6.57;;;;;;;-148.14;100.00;65945.72;5050121;28;20033;-85